createdAt,value
2017-01-20T00:00:48.154Z,86.17
2017-01-20T00:01:48.128Z,86.54
2017-01-20T00:02:48.105Z,86.54
2017-01-20T00:03:48.083Z,86.64
2017-01-20T00:04:48.056Z,87.3
2017-01-20T00:05:48.037Z,87.11
2017-01-20T00:06:48.010Z,87.02
2017-01-20T00:07:47.992Z,87.2
2017-01-20T00:08:47.964Z,87.58
2017-01-20T00:09:47.951Z,87.2
2017-01-20T00:10:47.918Z,87.02
2017-01-20T00:11:47.898Z,87.11
2017-01-20T00:12:47.872Z,87.68
2017-01-20T00:13:47.849Z,87.77
2017-01-20T00:14:47.826Z,88.24
2017-01-20T00:15:48.199Z,88.34
2017-01-20T00:16:47.780Z,88.52
2017-01-20T00:17:47.756Z,88.43
2017-01-20T00:18:47.734Z,87.77
2017-01-20T00:19:47.713Z,86.83
2017-01-20T00:20:47.689Z,86.07
2017-01-20T00:21:47.667Z,86.54
2017-01-20T00:22:47.641Z,86.73
2017-01-20T00:23:47.616Z,87.77
2017-01-20T00:24:47.597Z,87.96
2017-01-20T00:25:47.575Z,88.52
2017-01-20T00:26:47.551Z,89.75
2017-01-20T00:27:47.538Z,90.22
2017-01-20T00:28:47.506Z,91.06
2017-01-20T00:29:47.479Z,92.38
2017-01-20T00:30:47.461Z,93.23
2017-01-20T00:31:47.437Z,93.89
2017-01-20T00:32:47.412Z,95.11
2017-01-20T00:33:47.388Z,96.34
2017-01-20T00:34:47.369Z,97.09
2017-01-20T00:35:47.343Z,98.79
2017-01-20T00:36:47.321Z,99.99
2017-01-20T00:37:47.300Z,99.99
2017-01-20T00:38:47.275Z,99.99
2017-01-20T00:39:47.254Z,99.99
2017-01-20T00:40:47.229Z,99.99
2017-01-20T00:41:47.206Z,99.99
2017-01-20T00:42:47.183Z,99.99
2017-01-20T00:43:47.160Z,99.99
2017-01-20T00:44:47.136Z,99.99
2017-01-20T00:45:47.114Z,99.99
2017-01-20T00:46:47.090Z,99.99
2017-01-20T00:47:47.069Z,99.99
2017-01-20T00:48:47.046Z,99.99
2017-01-20T00:49:47.022Z,97.56
2017-01-20T00:50:47.000Z,95.4
2017-01-20T00:51:46.979Z,92
2017-01-20T00:52:46.950Z,87.96
2017-01-20T00:53:46.928Z,85.98
2017-01-20T00:54:46.906Z,85.04
2017-01-20T00:55:46.884Z,83.81
2017-01-20T00:56:46.863Z,82.97
2017-01-20T00:57:46.840Z,82.97
2017-01-20T00:58:46.816Z,83.62
2017-01-20T00:59:46.795Z,84.38
2017-01-20T01:00:46.769Z,84.85
2017-01-20T01:01:46.745Z,86.07
2017-01-20T01:02:46.721Z,85.98
2017-01-20T01:03:46.699Z,86.17
2017-01-20T01:04:46.677Z,86.07
2017-01-20T01:05:46.652Z,86.45
2017-01-20T01:06:46.629Z,86.64
2017-01-20T01:07:46.606Z,86.64
2017-01-20T01:08:46.586Z,87.49
2017-01-20T01:09:46.562Z,88.9
2017-01-20T01:10:46.545Z,90.88
2017-01-20T01:11:46.517Z,93.13
2017-01-20T01:12:46.492Z,96.72
2017-01-20T01:13:46.468Z,99.99
2017-01-20T01:14:46.445Z,99.99
2017-01-20T01:15:46.421Z,99.99
2017-01-20T01:16:46.403Z,99.99
2017-01-20T01:17:46.374Z,99.99
2017-01-20T01:18:46.351Z,99.99
2017-01-20T01:19:46.331Z,99.99
2017-01-20T01:20:46.309Z,99.99
2017-01-20T01:21:46.282Z,99.99
2017-01-20T01:22:46.262Z,99.99
2017-01-20T01:23:46.237Z,99.99
2017-01-20T01:24:46.213Z,99.99
2017-01-20T01:25:46.189Z,99.99
2017-01-20T01:26:46.171Z,99.99
2017-01-20T01:27:46.147Z,99.99
2017-01-20T01:28:46.150Z,99.99
2017-01-20T01:29:46.097Z,99.99
2017-01-20T01:30:46.078Z,99.99
2017-01-20T01:31:46.054Z,99.99
2017-01-20T01:32:46.032Z,99.99
2017-01-20T01:33:46.008Z,99.99
2017-01-20T01:34:45.986Z,99.99
2017-01-20T01:35:45.964Z,99.99
2017-01-20T01:36:45.937Z,99.99
2017-01-20T01:37:45.915Z,99.99
2017-01-20T01:38:45.895Z,99.99
2017-01-20T01:39:45.869Z,99.99
2017-01-20T01:40:45.846Z,99.99
2017-01-20T01:41:45.824Z,99.99
2017-01-20T01:42:45.801Z,99.99
2017-01-20T01:43:45.808Z,99.99
2017-01-20T01:44:45.757Z,99.99
2017-01-20T01:45:45.729Z,99.99
2017-01-20T01:46:45.808Z,99.99
2017-01-20T01:47:45.688Z,99.99
2017-01-20T01:48:45.664Z,99.99
2017-01-20T01:49:45.640Z,99.99
2017-01-20T01:50:46.013Z,99.99
2017-01-20T01:51:45.594Z,99.99
2017-01-20T01:52:45.570Z,99.99
2017-01-20T01:53:45.545Z,99.99
2017-01-20T01:54:45.524Z,99.99
2017-01-20T01:55:45.503Z,99.99
2017-01-20T01:56:45.480Z,99.99
2017-01-20T01:57:45.457Z,99.99
2017-01-20T01:58:45.433Z,99.99
2017-01-20T01:59:45.411Z,99.99
2017-01-20T02:00:45.387Z,99.99
2017-01-20T02:01:45.363Z,99.99
2017-01-20T02:02:50.537Z,98.83
2017-01-20T02:03:45.318Z,98.36
2017-01-20T02:04:45.293Z,98.32
2017-01-20T02:05:45.273Z,97.94
2017-01-20T02:06:45.249Z,98.03
2017-01-20T02:07:45.228Z,99.26
2017-01-20T02:08:45.204Z,99.16
2017-01-20T02:09:45.179Z,99.99
2017-01-20T02:10:45.156Z,99.99
2017-01-20T02:11:45.135Z,99.99
2017-01-20T02:12:45.109Z,99.99
2017-01-20T02:13:45.089Z,99.99
2017-01-20T02:14:45.066Z,99.99
2017-01-20T02:15:45.038Z,99.99
2017-01-20T02:16:45.017Z,99.99
2017-01-20T02:17:44.994Z,99.99
2017-01-20T02:18:44.973Z,99.99
2017-01-20T02:19:44.949Z,99.99
2017-01-20T02:20:44.925Z,99.99
2017-01-20T02:21:44.904Z,99.99
2017-01-20T02:22:44.879Z,99.99
2017-01-20T02:23:44.866Z,99.99
2017-01-20T02:24:44.831Z,99.99
2017-01-20T02:25:44.810Z,99.99
2017-01-20T02:26:44.787Z,99.99
2017-01-20T02:27:44.764Z,99.99
2017-01-20T02:28:44.742Z,99.99
2017-01-20T02:29:44.716Z,99.99
2017-01-20T02:30:44.701Z,99.99
2017-01-20T02:31:44.676Z,99.99
2017-01-20T02:32:44.650Z,99.99
2017-01-20T02:33:44.625Z,99.99
2017-01-20T02:34:44.598Z,99.99
2017-01-20T02:35:44.577Z,99.99
2017-01-20T02:36:44.552Z,99.99
2017-01-20T02:37:44.532Z,99.99
2017-01-20T02:38:44.505Z,99.99
2017-01-20T02:39:44.489Z,99.99
2017-01-20T02:40:44.460Z,99.49
2017-01-20T02:41:44.438Z,99.49
2017-01-20T02:42:44.415Z,99.99
2017-01-20T02:43:44.396Z,99.99
2017-01-20T02:44:44.369Z,99.99
2017-01-20T02:45:44.743Z,99.99
2017-01-20T02:46:44.318Z,99.99
2017-01-20T02:47:44.299Z,99.99
2017-01-20T02:48:44.276Z,99.99
2017-01-20T02:49:44.251Z,99.99
2017-01-20T02:50:44.231Z,99.99
2017-01-20T02:51:44.206Z,99.99
2017-01-20T02:52:44.184Z,99.99
2017-01-20T02:53:44.158Z,99.99
2017-01-20T02:54:44.135Z,99.99
2017-01-20T02:55:44.118Z,99.99
2017-01-20T02:56:44.090Z,99.99
2017-01-20T02:57:44.068Z,99.99
2017-01-20T02:58:44.054Z,99.99
2017-01-20T02:59:44.021Z,99.99
2017-01-20T03:00:43.997Z,99.99
2017-01-20T03:01:43.975Z,99.99
2017-01-20T03:02:43.951Z,99.99
2017-01-20T03:03:43.928Z,99.96
2017-01-20T03:04:43.906Z,99.99
2017-01-20T03:05:43.885Z,99.99
2017-01-20T03:06:43.857Z,99.99
2017-01-20T03:07:43.832Z,99.99
2017-01-20T03:08:43.812Z,99.99
2017-01-20T03:09:43.787Z,99.99
2017-01-20T03:10:43.764Z,99.99
2017-01-20T03:11:43.739Z,99.99
2017-01-20T03:12:43.717Z,99.99
2017-01-20T03:13:43.693Z,99.99
2017-01-20T03:14:43.670Z,99.99
2017-01-20T03:15:43.649Z,99.99
2017-01-20T03:16:43.623Z,99.99
2017-01-20T03:17:43.603Z,99.99
2017-01-20T03:18:43.577Z,99.99
2017-01-20T03:19:43.555Z,99.99
2017-01-20T03:20:43.530Z,99.99
2017-01-20T03:21:43.509Z,99.99
2017-01-20T03:22:43.482Z,99.99
2017-01-20T03:23:43.460Z,99.99
2017-01-20T03:24:43.436Z,99.99
2017-01-20T03:25:43.413Z,99.99
2017-01-20T03:26:43.391Z,99.99
2017-01-20T03:27:43.367Z,99.99
2017-01-20T03:28:43.344Z,99.99
2017-01-20T03:29:43.323Z,99.99
2017-01-20T03:30:43.299Z,98.93
2017-01-20T03:31:43.275Z,96.01
2017-01-20T03:32:43.253Z,95.07
2017-01-20T03:33:43.258Z,94.88
2017-01-20T03:34:43.206Z,93.18
2017-01-20T03:35:43.184Z,91.39
2017-01-20T03:36:43.159Z,91.2
2017-01-20T03:37:43.140Z,90.36
2017-01-20T03:38:43.116Z,90.22
2017-01-20T03:39:43.093Z,90.22
2017-01-20T03:40:43.064Z,89.84
2017-01-20T03:41:43.044Z,90.03
2017-01-20T03:42:43.030Z,90.03
2017-01-20T03:43:43.000Z,90.5
2017-01-20T03:44:42.976Z,90.88
2017-01-20T03:45:42.953Z,90.69
2017-01-20T03:46:42.930Z,90.41
2017-01-20T03:47:42.904Z,90.22
2017-01-20T03:48:42.883Z,88.81
2017-01-20T03:49:42.859Z,87.86
2017-01-20T03:50:42.836Z,87.49
2017-01-20T03:51:42.814Z,87.39
2017-01-20T03:52:42.788Z,88.43
2017-01-20T03:53:42.765Z,90.22
2017-01-20T03:54:42.744Z,91.06
2017-01-20T03:55:42.719Z,92.38
2017-01-20T03:56:42.697Z,92.38
2017-01-20T03:57:42.674Z,92.57
2017-01-20T03:58:42.679Z,95.3
2017-01-20T03:59:42.627Z,96.06
2017-01-20T04:00:42.605Z,95.49
2017-01-20T04:01:42.580Z,92.76
2017-01-20T04:02:42.555Z,90.41
2017-01-20T04:03:42.535Z,87.96
2017-01-20T04:04:42.510Z,86.17
2017-01-20T04:05:42.504Z,84.19
2017-01-20T04:06:42.463Z,82.5
2017-01-20T04:07:42.445Z,82.12
2017-01-20T04:08:42.418Z,82.5
2017-01-20T04:09:42.395Z,82.21
2017-01-20T04:10:42.372Z,81.74
2017-01-20T04:11:42.347Z,81.74
2017-01-20T04:12:42.323Z,81.74
2017-01-20T04:13:42.301Z,81.46
2017-01-20T04:14:42.280Z,81.18
2017-01-20T04:15:42.255Z,81.37
2017-01-20T04:16:42.232Z,80.71
2017-01-20T04:17:42.210Z,80.33
2017-01-20T04:18:42.186Z,80.33
2017-01-20T04:19:42.167Z,81.18
2017-01-20T04:20:42.138Z,81.37
2017-01-20T04:21:42.117Z,81.18
2017-01-20T04:22:42.094Z,80.99
2017-01-20T04:23:42.070Z,80.61
2017-01-20T04:24:42.044Z,80.52
2017-01-20T04:25:42.039Z,81.27
2017-01-20T04:26:42.003Z,82.78
2017-01-20T04:27:41.979Z,83.44
2017-01-20T04:28:41.956Z,85.88
2017-01-20T04:29:41.931Z,88.15
2017-01-20T04:30:41.912Z,90.59
2017-01-20T04:31:41.895Z,91.72
2017-01-20T04:32:41.863Z,91.82
2017-01-20T04:33:41.841Z,91.35
2017-01-20T04:34:41.817Z,91.53
2017-01-20T04:35:41.796Z,91.82
2017-01-20T04:36:41.769Z,91.44
2017-01-20T04:37:41.748Z,91.16
2017-01-20T04:38:41.723Z,92.1
2017-01-20T04:39:41.702Z,92.85
2017-01-20T04:40:41.678Z,95.87
2017-01-20T04:41:41.655Z,98.13
2017-01-20T04:42:41.633Z,99.82
2017-01-20T04:43:41.610Z,99.99
2017-01-20T04:44:41.586Z,99.99
2017-01-20T04:45:41.564Z,99.99
2017-01-20T04:46:41.542Z,99.99
2017-01-20T04:47:41.521Z,99.99
2017-01-20T04:48:41.495Z,99.99
2017-01-20T04:49:41.472Z,99.99
2017-01-20T04:50:41.453Z,97.56
2017-01-20T04:51:41.427Z,92.76
2017-01-20T04:52:41.404Z,90.41
2017-01-20T04:53:41.383Z,87.39
2017-01-20T04:54:41.360Z,84.94
2017-01-20T04:55:41.337Z,83.44
2017-01-20T04:56:41.313Z,82.03
2017-01-20T04:57:41.291Z,80.52
2017-01-20T04:58:41.267Z,80.71
2017-01-20T04:59:41.251Z,80.42
2017-01-20T05:00:41.222Z,79.95
2017-01-20T05:01:41.196Z,80.24
2017-01-20T05:02:41.174Z,80.42
2017-01-20T05:03:41.150Z,80.42
2017-01-20T05:04:41.132Z,82.03
2017-01-20T05:05:41.107Z,82.4
2017-01-20T05:06:41.084Z,85.04
2017-01-20T05:07:41.060Z,87.11
2017-01-20T05:08:41.039Z,90.12
2017-01-20T05:09:41.013Z,91.91
2017-01-20T05:10:40.992Z,92.76
2017-01-20T05:11:40.972Z,93.42
2017-01-20T05:12:40.949Z,94.36
2017-01-20T05:13:40.925Z,94.93
2017-01-20T05:14:40.901Z,95.21
2017-01-20T05:15:40.879Z,93.89
2017-01-20T05:16:40.857Z,92
2017-01-20T05:17:40.829Z,91.72
2017-01-20T05:18:40.808Z,90.22
2017-01-20T05:19:40.787Z,87.58
2017-01-20T05:20:40.765Z,86.73
2017-01-20T05:21:40.742Z,86.73
2017-01-20T05:22:40.731Z,87.02
2017-01-20T05:23:40.696Z,86.83
2017-01-20T05:24:40.674Z,85.88
2017-01-20T05:25:40.650Z,86.54
2017-01-20T05:26:40.626Z,87.2
2017-01-20T05:27:40.602Z,88.81
2017-01-20T05:28:40.584Z,89.56
2017-01-20T05:29:40.559Z,88.9
2017-01-20T05:30:40.535Z,89.56
2017-01-20T05:31:40.512Z,89.75
2017-01-20T05:32:40.489Z,89.28
2017-01-20T05:33:40.464Z,87.96
2017-01-20T05:34:40.445Z,86.54
2017-01-20T05:35:40.418Z,84.38
2017-01-20T05:36:40.396Z,84.38
2017-01-20T05:37:40.375Z,84.56
2017-01-20T05:38:40.350Z,85.22
2017-01-20T05:39:40.331Z,86.54
2017-01-20T05:40:40.306Z,86.45
2017-01-20T05:41:40.281Z,85.51
2017-01-20T05:42:40.259Z,85.7
2017-01-20T05:43:40.239Z,85.41
2017-01-20T05:44:40.215Z,85.79
2017-01-20T05:45:40.190Z,86.73
2017-01-20T05:46:40.169Z,87.96
2017-01-20T05:47:40.145Z,88.81
2017-01-20T05:48:40.128Z,90.31
2017-01-20T05:49:40.139Z,90.22
2017-01-20T05:50:40.115Z,90.22
2017-01-20T05:51:40.093Z,88.52
2017-01-20T05:52:40.073Z,86.92
2017-01-20T05:53:40.045Z,84.94
2017-01-20T05:54:40.024Z,84
2017-01-20T05:55:39.999Z,84
2017-01-20T05:56:39.978Z,82.31
2017-01-20T05:57:39.957Z,83.15
2017-01-20T05:58:39.933Z,83.44
2017-01-20T05:59:39.912Z,83.25
2017-01-20T06:00:39.889Z,82.4
2017-01-20T06:01:39.862Z,81.84
2017-01-20T06:02:39.839Z,81.27
2017-01-20T06:03:39.817Z,80.42
2017-01-20T06:04:39.802Z,80.05
2017-01-20T06:05:39.774Z,79.76
2017-01-20T06:06:39.748Z,80.14
2017-01-20T06:07:39.725Z,79.95
2017-01-20T06:08:39.709Z,79.67
2017-01-20T06:09:39.679Z,79.67
2017-01-20T06:10:39.655Z,78.26
2017-01-20T06:11:39.636Z,77.41
2017-01-20T06:12:39.611Z,77.31
2017-01-20T06:13:39.589Z,77.12
2017-01-20T06:14:39.566Z,77.41
2017-01-20T06:15:39.544Z,77.6
2017-01-20T06:16:39.520Z,76.65
2017-01-20T06:17:39.497Z,76.65
2017-01-20T06:18:39.474Z,74.49
2017-01-20T06:19:39.451Z,73.46
2017-01-20T06:20:39.427Z,73.08
2017-01-20T06:21:39.407Z,73.36
2017-01-20T06:22:39.382Z,73.46
2017-01-20T06:23:39.361Z,72.61
2017-01-20T06:24:39.337Z,74.96
2017-01-20T06:25:39.314Z,76.37
2017-01-20T06:26:39.292Z,76.94
2017-01-20T06:27:39.269Z,78.63
2017-01-20T06:28:39.245Z,80.05
2017-01-20T06:29:39.225Z,82.5
2017-01-20T06:30:39.200Z,84.47
2017-01-20T06:31:39.175Z,85.13
2017-01-20T06:32:39.156Z,85.88
2017-01-20T06:33:39.135Z,86.64
2017-01-20T06:34:39.110Z,87.2
2017-01-20T06:35:39.088Z,86.54
2017-01-20T06:36:39.066Z,86.54
2017-01-20T06:37:39.040Z,87.96
2017-01-20T06:38:39.021Z,89.09
2017-01-20T06:39:38.996Z,88.52
2017-01-20T06:40:39.010Z,88.34
2017-01-20T06:41:38.950Z,87.68
2017-01-20T06:42:38.927Z,87.3
2017-01-20T06:43:38.907Z,87.68
2017-01-20T06:44:38.883Z,87.96
2017-01-20T06:45:38.862Z,86.64
2017-01-20T06:46:38.838Z,84.19
2017-01-20T06:47:38.815Z,82.87
2017-01-20T06:48:38.790Z,83.91
2017-01-20T06:49:38.772Z,86.64
2017-01-20T06:50:38.742Z,87.68
2017-01-20T06:51:38.725Z,88.43
2017-01-20T06:52:38.705Z,89.75
2017-01-20T06:53:38.675Z,90.12
2017-01-20T06:54:38.653Z,90.5
2017-01-20T06:55:38.629Z,89.75
2017-01-20T06:56:38.609Z,89.65
2017-01-20T06:57:38.585Z,89
2017-01-20T06:58:38.564Z,89.56
2017-01-20T06:59:38.649Z,89
2017-01-20T07:00:38.519Z,88.62
2017-01-20T07:01:38.495Z,89.56
2017-01-20T07:02:38.472Z,90.78
2017-01-20T07:03:38.451Z,91.16
2017-01-20T07:04:38.429Z,91.06
2017-01-20T07:05:38.404Z,91.16
2017-01-20T07:06:38.379Z,90.78
2017-01-20T07:07:38.357Z,90.59
2017-01-20T07:08:38.336Z,90.97
2017-01-20T07:09:38.312Z,90.69
2017-01-20T07:10:38.289Z,90.03
2017-01-20T07:11:38.266Z,90.69
2017-01-20T07:12:38.244Z,91.25
2017-01-20T07:13:38.220Z,91.06
2017-01-20T07:14:38.199Z,90.22
2017-01-20T07:15:38.175Z,90.41
2017-01-20T07:16:38.152Z,89.94
2017-01-20T07:17:38.130Z,90.22
2017-01-20T07:18:38.105Z,87.96
2017-01-20T07:19:38.081Z,84.19
2017-01-20T07:20:38.456Z,81.27
2017-01-20T07:21:38.043Z,77.97
2017-01-20T07:22:38.017Z,75.52
2017-01-20T07:23:37.993Z,74.49
2017-01-20T07:24:37.968Z,73.36
2017-01-20T07:25:37.948Z,73.36
2017-01-20T07:26:37.925Z,73.93
2017-01-20T07:27:37.907Z,75.05
2017-01-20T07:28:37.881Z,77.31
2017-01-20T07:29:37.857Z,78.16
2017-01-20T07:30:37.833Z,79.67
2017-01-20T07:31:37.814Z,81.37
2017-01-20T07:32:37.793Z,82.59
2017-01-20T07:33:37.768Z,83.81
2017-01-20T07:34:37.741Z,84.38
2017-01-20T07:35:37.750Z,85.51
2017-01-20T07:36:37.700Z,86.73
2017-01-20T07:37:37.680Z,86.73
2017-01-20T07:38:37.653Z,87.3
2017-01-20T07:39:37.632Z,88.34
2017-01-20T07:40:37.607Z,90.41
2017-01-20T07:41:37.587Z,92.85
2017-01-20T07:42:37.562Z,95.11
2017-01-20T07:43:37.547Z,95.02
2017-01-20T07:44:37.520Z,94.45
2017-01-20T07:45:37.496Z,94.55
2017-01-20T07:46:37.471Z,93.42
2017-01-20T07:47:37.451Z,92.85
2017-01-20T07:48:37.428Z,91.63
2017-01-20T07:49:37.408Z,91.25
2017-01-20T07:50:37.381Z,90.78
2017-01-20T07:51:37.361Z,89.75
2017-01-20T07:52:37.340Z,88.81
2017-01-20T07:53:37.322Z,88.34
2017-01-20T07:54:37.293Z,89.18
2017-01-20T07:55:37.272Z,88.81
2017-01-20T07:56:37.249Z,87.3
2017-01-20T07:57:37.229Z,85.41
2017-01-20T07:58:37.204Z,82.5
2017-01-20T07:59:37.183Z,80.52
2017-01-20T08:00:37.161Z,79.76
2017-01-20T08:01:37.139Z,78.49
2017-01-20T08:02:37.115Z,78.2
2017-01-20T08:03:37.095Z,77.45
2017-01-20T08:04:37.070Z,77.07
2017-01-20T08:05:37.048Z,75.85
2017-01-20T08:06:37.026Z,75.38
2017-01-20T08:07:37.007Z,73.87
2017-01-20T08:08:36.982Z,72.92
2017-01-20T08:09:36.959Z,71.89
2017-01-20T08:10:36.936Z,71.33
2017-01-20T08:11:36.914Z,70.86
2017-01-20T08:12:36.895Z,70.38
2017-01-20T08:13:36.874Z,70.38
2017-01-20T08:14:36.849Z,68.59
2017-01-20T08:15:36.825Z,68.21
2017-01-20T08:16:36.804Z,65.58
2017-01-20T08:17:36.780Z,64.07
2017-01-20T08:18:36.762Z,63.41
2017-01-20T08:19:36.738Z,63.6
2017-01-20T08:20:36.723Z,64.2
2017-01-20T08:21:36.696Z,63.73
2017-01-20T08:22:36.674Z,63.44
2017-01-20T08:23:36.654Z,64.01
2017-01-20T08:24:36.634Z,64.01
2017-01-20T08:25:36.620Z,64.76
2017-01-20T08:26:36.589Z,65.7
2017-01-20T08:27:36.566Z,65.8
2017-01-20T08:28:36.546Z,65.61
2017-01-20T08:29:36.523Z,65.8
2017-01-20T08:30:36.503Z,65.42
2017-01-20T08:31:36.480Z,65.8
2017-01-20T08:32:36.546Z,66.46
2017-01-20T08:33:36.442Z,67.12
2017-01-20T08:34:36.416Z,66.93
2017-01-20T08:35:36.399Z,66.55
2017-01-20T08:36:36.375Z,67.02
2017-01-20T08:37:36.354Z,67.21
2017-01-20T08:38:36.333Z,66.93
2017-01-20T08:39:36.312Z,67.78
2017-01-20T08:40:36.294Z,68.82
2017-01-20T08:41:36.269Z,68.82
2017-01-20T08:42:36.250Z,68.34
2017-01-20T08:43:36.225Z,68.34
2017-01-20T08:44:36.206Z,67.97
2017-01-20T08:45:36.183Z,67.78
2017-01-20T08:46:36.166Z,65.89
2017-01-20T08:47:36.148Z,63.63
2017-01-20T08:48:36.125Z,60.89
2017-01-20T08:49:36.101Z,60.61
2017-01-20T08:50:36.082Z,60.36
2017-01-20T08:51:36.062Z,58.85
2017-01-20T08:52:36.041Z,57.15
2017-01-20T08:53:36.022Z,55.83
2017-01-20T08:54:36.002Z,54.51
2017-01-20T08:55:35.980Z,54.42
2017-01-20T08:56:35.966Z,54.04
2017-01-20T08:57:35.943Z,52.62
2017-01-20T08:58:35.920Z,51.97
2017-01-20T08:59:35.902Z,50.36
2017-01-20T09:00:35.881Z,48
2017-01-20T09:01:35.862Z,46.4
2017-01-20T09:02:35.843Z,44.8
2017-01-20T09:03:35.821Z,43.22
2017-01-20T09:04:35.803Z,42.36
2017-01-20T09:05:35.780Z,40.58
2017-01-20T09:06:35.763Z,39.44
2017-01-20T09:07:35.743Z,38.78
2017-01-20T09:08:35.725Z,38.68
2017-01-20T09:09:35.704Z,38.97
2017-01-20T09:10:35.683Z,39.06
2017-01-20T09:11:35.666Z,38.31
2017-01-20T09:12:35.650Z,37.65
2017-01-20T09:13:35.625Z,36.71
2017-01-20T09:14:35.607Z,36.99
2017-01-20T09:15:35.588Z,36.54
2017-01-20T09:16:35.569Z,37.67
2017-01-20T09:17:35.550Z,37.95
2017-01-20T09:18:35.532Z,38.99
2017-01-20T09:19:35.512Z,39.94
2017-01-20T09:20:35.495Z,40.22
2017-01-20T09:21:35.473Z,40.41
2017-01-20T09:22:35.454Z,41.25
2017-01-20T09:23:35.438Z,41.82
2017-01-20T09:24:35.418Z,41.92
2017-01-20T09:25:35.403Z,42.3
2017-01-20T09:26:35.381Z,41.06
2017-01-20T09:27:35.364Z,43.15
2017-01-20T09:28:35.344Z,50.13
2017-01-20T09:29:35.327Z,50.51
2017-01-20T09:30:35.308Z,55.23
2017-01-20T09:31:35.287Z,60.42
2017-01-20T09:32:35.276Z,61.18
2017-01-20T09:33:35.250Z,62.21
2017-01-20T09:34:35.233Z,57.34
2017-01-20T09:35:35.215Z,54.6
2017-01-20T09:36:35.197Z,56.01
2017-01-20T09:37:35.180Z,56.58
2017-01-20T09:38:35.161Z,62.15
2017-01-20T09:39:35.148Z,61.02
2017-01-20T09:40:35.154Z,61.21
2017-01-20T09:41:35.109Z,62.34
2017-01-20T09:42:35.091Z,60.55
2017-01-20T09:43:35.074Z,57.34
2017-01-20T09:44:35.054Z,54.13
2017-01-20T09:45:35.039Z,54.03
2017-01-20T09:46:35.018Z,54.5
2017-01-20T09:47:35.002Z,58.31
2017-01-20T09:48:34.984Z,59.82
2017-01-20T09:49:34.965Z,56.89
2017-01-20T09:50:34.951Z,54.15
2017-01-20T09:51:34.934Z,52.64
2017-01-20T09:52:34.916Z,50.56
2017-01-20T09:53:34.899Z,49.62
2017-01-20T09:54:34.880Z,51.98
2017-01-20T09:55:34.867Z,62.28
2017-01-20T09:56:34.846Z,68.61
2017-01-20T09:57:34.829Z,73.24
2017-01-20T09:58:34.819Z,77.4
2017-01-20T09:59:34.797Z,80.71
2017-01-20T10:00:34.780Z,78.72
2017-01-20T10:01:34.762Z,74.38
2017-01-20T10:02:34.747Z,72.49
2017-01-20T10:03:34.767Z,73.52
2017-01-20T10:04:34.708Z,73.66
2017-01-20T10:05:34.694Z,78.1
2017-01-20T10:06:34.675Z,89.07
2017-01-20T10:07:34.661Z,99.99
2017-01-20T10:08:34.641Z,99.99
2017-01-20T10:09:34.628Z,99.99
2017-01-20T10:10:34.640Z,99.99
2017-01-20T10:11:34.594Z,99.99
2017-01-20T10:12:34.578Z,99.99
2017-01-20T10:13:34.564Z,99.99
2017-01-20T10:14:34.544Z,99.99
2017-01-20T10:15:34.527Z,99.99
2017-01-20T10:16:34.510Z,99.99
2017-01-20T10:17:34.500Z,99.99
2017-01-20T10:18:34.476Z,99.99
2017-01-20T10:19:34.858Z,99.99
2017-01-20T10:20:34.443Z,99.99
2017-01-20T10:21:34.427Z,99.99
2017-01-20T10:22:34.409Z,99.99
2017-01-20T10:23:34.393Z,99.99
2017-01-20T10:24:34.376Z,99.99
2017-01-20T10:25:34.358Z,99.99
2017-01-20T10:26:34.341Z,99.99
2017-01-20T10:27:34.324Z,99.99
2017-01-20T10:28:34.338Z,99.99
2017-01-20T10:29:34.291Z,99.99
2017-01-20T10:30:34.275Z,99.99
2017-01-20T10:31:34.256Z,99.99
2017-01-20T10:32:34.243Z,99.99
2017-01-20T10:33:34.223Z,99.99
2017-01-20T10:34:34.209Z,99.99
2017-01-20T10:35:34.190Z,99.99
2017-01-20T10:36:34.171Z,99.99
2017-01-20T10:37:34.158Z,99.99
2017-01-20T10:38:34.142Z,99.99
2017-01-20T10:39:34.128Z,99.99
2017-01-20T10:40:34.106Z,99.99
2017-01-20T10:41:34.089Z,99.99
2017-01-20T10:42:34.073Z,99.99
2017-01-20T10:43:34.058Z,99.99
2017-01-20T10:44:34.041Z,99.99
2017-01-20T10:45:34.024Z,99.99
2017-01-20T10:46:34.009Z,99.99
2017-01-20T10:47:33.988Z,99.99
2017-01-20T10:48:33.971Z,99.99
2017-01-20T10:49:33.954Z,99.99
2017-01-20T10:50:33.937Z,99.99
2017-01-20T10:51:33.921Z,99.99
2017-01-20T10:52:33.904Z,99.99
2017-01-20T10:53:33.890Z,99.99
2017-01-20T10:54:33.875Z,99.99
2017-01-20T10:55:33.862Z,99.99
2017-01-20T10:56:33.835Z,99.99
2017-01-20T10:57:33.821Z,99.99
2017-01-20T10:58:33.807Z,99.99
2017-01-20T10:59:33.789Z,99.99
2017-01-20T11:00:33.771Z,99.99
2017-01-20T11:01:33.755Z,99.99
2017-01-20T11:02:33.741Z,99.99
2017-01-20T11:03:33.724Z,99.99
2017-01-20T11:04:33.708Z,99.99
2017-01-20T11:05:33.691Z,99.99
2017-01-20T11:06:33.675Z,99.99
2017-01-20T11:07:33.687Z,99.99
2017-01-20T11:08:33.640Z,99.99
2017-01-20T11:09:33.625Z,99.99
2017-01-20T11:10:33.607Z,99.99
2017-01-20T11:11:33.591Z,99.99
2017-01-20T11:12:33.575Z,99.99
2017-01-20T11:13:33.557Z,99.99
2017-01-20T11:14:33.540Z,99.99
2017-01-20T11:15:33.526Z,99.99
2017-01-20T11:16:33.510Z,99.99
2017-01-20T11:17:33.496Z,99.99
2017-01-20T11:18:33.476Z,99.99
2017-01-20T11:19:33.461Z,99.99
2017-01-20T11:20:33.444Z,99.99
2017-01-20T11:21:33.427Z,99.99
2017-01-20T11:22:33.410Z,99.99
2017-01-20T11:23:33.397Z,99.99
2017-01-20T11:24:33.375Z,99.99
2017-01-20T11:25:33.363Z,99.99
2017-01-20T11:26:33.349Z,99.99
2017-01-20T11:27:33.330Z,99.99
2017-01-20T11:28:33.314Z,99.99
2017-01-20T11:29:33.300Z,99.99
2017-01-20T11:30:33.280Z,99.99
2017-01-20T11:31:33.265Z,99.99
2017-01-20T11:32:33.248Z,99.99
2017-01-20T11:33:33.234Z,99.99
2017-01-20T11:34:33.219Z,99.99
2017-01-20T11:35:33.205Z,99.99
2017-01-20T11:36:33.188Z,99.99
2017-01-20T11:37:33.169Z,99.99
2017-01-20T11:38:33.156Z,99.99
2017-01-20T11:39:33.138Z,99.99
2017-01-20T11:40:33.125Z,99.99
2017-01-20T11:41:33.108Z,99.99
2017-01-20T11:42:33.092Z,99.99
2017-01-20T11:43:33.078Z,99.99
2017-01-20T11:44:33.062Z,99.99
2017-01-20T11:45:33.049Z,99.99
2017-01-20T11:46:33.031Z,99.99
2017-01-20T11:47:33.014Z,99.99
2017-01-20T11:48:33.001Z,99.99
2017-01-20T11:49:32.985Z,99.99
2017-01-20T11:50:32.971Z,99.99
2017-01-20T11:51:32.955Z,99.99
2017-01-20T11:52:32.941Z,99.99
2017-01-20T11:53:32.922Z,99.99
2017-01-20T11:54:32.907Z,99.99
2017-01-20T11:55:32.894Z,99.99
2017-01-20T11:56:32.880Z,99.99
2017-01-20T11:57:32.863Z,99.99
2017-01-20T11:58:32.847Z,99.99
2017-01-20T11:59:32.832Z,99.99
2017-01-20T12:00:32.822Z,99.99
2017-01-20T12:01:32.803Z,99.99
2017-01-20T12:02:32.784Z,99.99
2017-01-20T12:03:32.773Z,99.99
2017-01-20T12:04:32.757Z,99.99
2017-01-20T12:05:32.739Z,99.99
2017-01-20T12:06:32.728Z,99.99
2017-01-20T12:07:32.711Z,99.99
2017-01-20T12:08:32.694Z,99.99
2017-01-20T12:09:32.680Z,99.99
2017-01-20T12:10:32.666Z,99.99
2017-01-20T12:11:32.649Z,99.99
2017-01-20T12:12:32.630Z,99.99
2017-01-20T12:13:32.617Z,99.99
2017-01-20T12:14:32.599Z,99.99
2017-01-20T12:15:32.591Z,99.99
2017-01-20T12:16:32.569Z,99.99
2017-01-20T12:17:32.556Z,99.99
2017-01-20T12:18:32.538Z,99.99
2017-01-20T12:19:32.527Z,99.99
2017-01-20T12:20:32.507Z,99.99
2017-01-20T12:21:32.495Z,99.99
2017-01-20T12:22:32.474Z,99.99
2017-01-20T12:23:32.459Z,99.99
2017-01-20T12:24:32.842Z,99.99
2017-01-20T12:25:32.429Z,99.99
2017-01-20T12:26:32.413Z,99.99
2017-01-20T12:27:32.399Z,99.99
2017-01-20T12:28:32.386Z,99.99
2017-01-20T12:29:32.370Z,99.99
2017-01-20T12:30:32.351Z,99.99
2017-01-20T12:31:32.338Z,99.99
2017-01-20T12:32:32.321Z,99.99
2017-01-20T12:33:32.307Z,99.99
2017-01-20T12:34:32.288Z,99.99
2017-01-20T12:35:32.272Z,99.99
2017-01-20T12:36:32.273Z,99.99
2017-01-20T12:37:32.242Z,99.99
2017-01-20T12:38:32.228Z,99.99
2017-01-20T12:39:32.214Z,99.99
2017-01-20T12:40:32.198Z,99.99
2017-01-20T12:41:32.180Z,99.99
2017-01-20T12:42:32.168Z,99.99
2017-01-20T12:43:32.152Z,99.99
2017-01-20T12:44:32.139Z,99.99
2017-01-20T12:45:32.119Z,99.99
2017-01-20T12:46:32.503Z,99.99
2017-01-20T12:47:32.090Z,99.99
2017-01-20T12:48:32.075Z,99.99
2017-01-20T12:49:32.062Z,99.99
2017-01-20T12:50:32.049Z,99.99
2017-01-20T12:51:32.029Z,99.99
2017-01-20T12:52:32.018Z,99.99
2017-01-20T12:53:32.004Z,99.99
2017-01-20T12:54:31.985Z,99.99